Time;durP1;ratioP1;P1;durP2;ratioP2;P2;SDS_P1;SDS_P2;PMS_P1;PMS_P2;Temp;Humidity;BMP_temperature;BMP_pressure;BME280_temperature;BME280_humidity;BME280_pressure;Samples;Min_cycle;Max_cycle;Signal;HPM_P1;HPM_P2
2020/12/11 00:00:08;;;;;;;20.53;12.17;;;;;;;9.17;98.04;93966.91;4996917;28;20581;-91
2020/12/11 00:02:35;;;;;;;13.57;8.93;;;;;;;9.20;97.46;93976.28;4996859;28;20562;-92
2020/12/11 00:05:02;;;;;;;9.43;7.10;;;;;;;9.17;97.54;93969.53;4996171;28;20477;-91
2020/12/11 00:07:29;;;;;;;11.33;5.57;;;;;;;9.21;97.52;93977.94;4996943;28;20830;-91
2020/12/11 00:09:55;;;;;;;7.97;6.00;;;;;;;9.19;98.34;93970.22;4996978;28;20556;-92
2020/12/11 00:12:22;;;;;;;7.00;6.33;;;;;;;9.22;97.80;93980.41;4997050;28;20436;-91
2020/12/11 00:14:48;;;;;;;12.10;7.50;;;;;;;9.19;96.92;93975.44;4996896;28;20444;-91
2020/12/11 00:17:15;;;;;;;9.33;7.20;;;;;;;9.20;97.31;93971.88;4998190;28;20444;-92
2020/12/11 00:19:41;;;;;;;11.97;7.03;;;;;;;9.20;97.03;93974.47;4996705;28;20580;-91
2020/12/11 00:22:14;;;;;;;12.60;7.43;;;;;;;9.21;96.27;93980.53;4999921;28;20482;-91
2020/12/11 00:24:41;;;;;;;13.20;7.40;;;;;;;9.17;97.34;93982.63;4999920;28;20454;-92
2020/12/11 00:27:08;;;;;;;17.03;9.87;;;;;;;9.15;96.62;93986.34;4999897;28;20435;-91
2020/12/11 00:29:34;;;;;;;17.87;8.80;;;;;;;9.12;97.76;93984.84;4999763;28;20540;-91
2020/12/11 00:32:01;;;;;;;11.10;8.60;;;;;;;9.13;97.16;93983.88;4999142;28;21028;-91
2020/12/11 00:34:28;;;;;;;16.70;8.70;;;;;;;9.12;96.86;93984.03;4999997;28;20443;-91
2020/12/11 00:36:54;;;;;;;12.73;8.27;;;;;;;9.10;96.95;93994.66;4999306;28;20442;-91
2020/12/11 00:39:22;;;;;;;14.83;6.90;;;;;;;9.09;96.94;93994.78;4999237;28;20480;-91
2020/12/11 00:41:48;;;;;;;11.90;6.43;;;;;;;9.09;97.18;93995.63;4999708;28;20462;-91
2020/12/11 00:44:14;;;;;;;17.77;7.23;;;;;;;9.11;97.15;93993.69;4999522;28;20474;-90
2020/12/11 00:46:41;;;;;;;16.70;8.30;;;;;;;9.07;96.52;93992.31;4998970;28;20461;-91
2020/12/11 00:49:07;;;;;;;21.37;10.27;;;;;;;9.02;96.39;93997.16;4998871;28;20940;-92
2020/12/11 00:51:34;;;;;;;18.30;11.40;;;;;;;8.97;96.43;93994.97;4998957;28;20832;-91
2020/12/11 00:54:01;;;;;;;13.97;9.70;;;;;;;8.95;96.70;93998.66;4998194;28;20518;-92
2020/12/11 00:56:28;;;;;;;16.33;12.37;;;;;;;8.94;97.01;94002.25;4998967;28;20452;-91
2020/12/11 00:58:54;;;;;;;19.80;13.57;;;;;;;8.81;97.63;94001.75;4998485;28;20438;-91
2020/12/11 01:01:21;;;;;;;12.20;10.37;;;;;;;8.54;99.89;93990.25;4998174;28;20451;-91
2020/12/11 01:03:47;;;;;;;16.80;10.30;;;;;;;8.62;99.26;93998.19;4998385;28;20441;-92
2020/12/11 01:06:14;;;;;;;11.73;7.83;;;;;;;8.54;100.00;93994.63;4998590;28;20436;-92
2020/12/11 01:08:41;;;;;;;15.40;10.43;;;;;;;8.57;100.00;93995.19;4998581;28;20448;-91
2020/12/11 01:11:07;;;;;;;9.90;8.40;;;;;;;8.53;99.81;93982.53;4998243;28;20450;-91
2020/12/11 01:13:34;;;;;;;14.40;8.47;;;;;;;8.61;100.00;93986.09;4998279;28;20456;-91
2020/12/11 01:16:01;;;;;;;16.83;9.27;;;;;;;8.65;99.95;93982.22;4998022;28;20430;-89
2020/12/11 01:18:27;;;;;;;11.03;8.03;;;;;;;8.65;99.80;93990.06;4998169;28;20519;-91
2020/12/11 01:20:54;;;;;;;12.03;8.73;;;;;;;8.73;99.88;93999.03;4998082;28;20491;-91
2020/12/11 01:23:20;;;;;;;14.20;8.53;;;;;;;8.75;99.64;93989.25;4997828;28;20450;-92
2020/12/11 01:25:46;;;;;;;12.17;8.17;;;;;;;8.76;98.97;93988.28;4997801;28;20481;-92
2020/12/11 01:28:13;;;;;;;10.67;8.00;;;;;;;8.74;98.96;93985.81;4997656;28;20455;-92
2020/12/11 01:30:40;;;;;;;9.53;8.27;;;;;;;8.69;98.63;93985.41;4998025;28;20437;-92
2020/12/11 01:33:07;;;;;;;16.13;11.30;;;;;;;8.79;99.14;93993.22;4998252;28;20543;-92
2020/12/11 01:35:33;;;;;;;18.00;12.30;;;;;;;8.72;98.59;93992.16;4998065;28;20462;-92
2020/12/11 01:37:59;;;;;;;13.70;8.47;;;;;;;8.60;99.09;93987.06;4998247;28;20904;-92
2020/12/11 01:40:26;;;;;;;13.97;10.50;;;;;;;8.64;98.45;93987.59;4997657;28;20484;-92
2020/12/11 01:42:52;;;;;;;15.30;8.83;;;;;;;8.59;98.59;93990.63;4998235;28;20523;-92
2020/12/11 01:45:18;;;;;;;19.60;16.67;;;;;;;8.48;98.25;93974.28;4998424;28;20436;-92
2020/12/11 01:47:47;;;;;;;17.93;16.03;;;;;;;8.55;98.57;93983.22;4997934;28;20437;-91
2020/12/11 01:50:18;;;;;;;16.80;13.53;;;;;;;8.60;99.02;93978.38;4997908;28;20445;-92
2020/12/11 01:52:46;;;;;;;16.53;12.70;;;;;;;8.60;99.09;93965.31;4997660;28;20444;-92
2020/12/11 01:55:12;;;;;;;13.70;11.60;;;;;;;8.69;99.07;93975.78;4997804;28;20941;-91
2020/12/11 01:57:48;;;;;;;11.33;7.90;;;;;;;8.68;98.46;93968.06;4998046;28;20443;-91
2020/12/11 02:00:19;;;;;;;11.17;8.47;;;;;;;8.68;97.94;93971.50;4997706;28;20485;-91
2020/12/11 02:02:47;;;;;;;9.00;7.50;;;;;;;8.73;97.34;93983.34;5005873;28;20450;-89
2020/12/11 02:05:14;;;;;;;9.70;6.90;;;;;;;8.76;98.13;93983.03;5008081;28;20434;-89
2020/12/11 02:07:41;;;;;;;9.57;7.33;;;;;;;8.77;98.34;93982.09;5004415;28;20446;-91
2020/12/11 02:10:09;;;;;;;9.83;7.33;;;;;;;8.76;98.40;93983.88;4997942;28;20919;-91
2020/12/11 02:12:36;;;;;;;10.37;6.50;;;;;;;8.79;97.90;93980.16;4998636;28;20450;-91
2020/12/11 02:15:02;;;;;;;8.90;6.50;;;;;;;8.81;98.67;93975.59;4999059;28;20462;-91
2020/12/11 02:17:29;;;;;;;7.90;6.67;;;;;;;8.85;98.04;93977.78;4998343;28;20434;-92
2020/12/11 02:19:57;;;;;;;6.27;4.70;;;;;;;8.81;96.67;93981.66;4997821;28;20483;-91
2020/12/11 02:22:24;;;;;;;7.77;4.73;;;;;;;8.69;96.70;93969.72;4997896;28;20466;-91
2020/12/11 02:24:51;;;;;;;7.63;4.93;;;;;;;8.73;96.69;93972.88;4997734;28;20470;-91
2020/12/11 02:27:17;;;;;;;9.73;5.30;;;;;;;8.75;96.38;93970.94;4997775;28;20476;-91
2020/12/11 02:29:44;;;;;;;6.60;4.77;;;;;;;8.72;96.14;93974.66;4998082;28;20441;-91
2020/12/11 02:32:13;;;;;;;7.57;5.20;;;;;;;8.77;96.95;93976.84;4997890;28;20452;-91
2020/12/11 02:34:41;;;;;;;6.20;4.90;;;;;;;8.78;97.54;93981.13;4997276;28;20437;-91
2020/12/11 02:37:08;;;;;;;7.37;5.60;;;;;;;8.80;97.88;93984.41;4998232;28;20444;-91
2020/12/11 02:39:35;;;;;;;7.23;5.07;;;;;;;8.82;97.47;93979.84;4997903;28;20528;-91
2020/12/11 02:42:01;;;;;;;11.30;5.40;;;;;;;8.85;98.10;93985.63;4997724;28;20437;-91
2020/12/11 02:44:28;;;;;;;6.47;5.03;;;;;;;8.86;97.32;93973.38;4997101;28;20450;-90
2020/12/11 02:46:54;;;;;;;9.13;5.47;;;;;;;8.86;97.62;93982.03;5009954;28;20485;-89
2020/12/11 02:49:21;;;;;;;7.87;5.27;;;;;;;8.80;97.31;93980.00;5010860;28;20450;-90
2020/12/11 02:51:47;;;;;;;6.90;5.50;;;;;;;8.88;97.80;93981.91;5009971;28;20498;-89
2020/12/11 02:54:14;;;;;;;8.20;4.73;;;;;;;8.93;97.15;93990.13;5009485;28;20526;-90
2020/12/11 02:56:41;;;;;;;7.57;6.00;;;;;;;8.95;97.00;93989.03;5003832;28;20433;-91
2020/12/11 02:59:08;;;;;;;7.67;6.50;;;;;;;8.83;95.94;93974.47;4997305;28;20903;-90
2020/12/11 03:01:34;;;;;;;7.90;5.57;;;;;;;8.90;97.27;93986.03;4996780;28;20486;-92
2020/12/11 03:04:01;;;;;;;6.73;5.60;;;;;;;8.85;96.37;93977.78;4997363;28;20965;-92
2020/12/11 03:06:30;;;;;;;5.83;5.23;;;;;;;8.79;97.21;93974.91;4997628;28;20525;-92
2020/12/11 03:08:57;;;;;;;5.33;4.83;;;;;;;8.84;97.79;93980.53;4997995;28;20471;-92
2020/12/11 03:11:24;;;;;;;8.00;5.60;;;;;;;8.85;98.17;93984.81;4997949;28;20474;-91
2020/12/11 03:13:51;;;;;;;7.20;6.50;;;;;;;8.82;97.94;93987.72;4997263;28;20515;-92
2020/12/11 03:16:18;;;;;;;6.97;4.90;;;;;;;8.83;97.52;93987.56;4997300;28;20458;-92
2020/12/11 03:18:44;;;;;;;10.57;7.47;;;;;;;8.86;97.51;93995.13;4997258;28;20448;-92
2020/12/11 03:21:11;;;;;;;10.23;6.57;;;;;;;8.87;97.25;93995.94;4996960;28;20478;-92
2020/12/11 03:23:37;;;;;;;10.40;7.27;;;;;;;8.86;97.67;93994.31;4997082;28;20433;-90
2020/12/11 03:26:04;;;;;;;11.90;8.10;;;;;;;8.87;97.67;93990.72;4996833;28;20962;-92
2020/12/11 03:28:30;;;;;;;10.20;7.03;;;;;;;8.90;97.38;93996.50;4997758;28;20455;-91
2020/12/11 03:30:58;;;;;;;8.20;5.90;;;;;;;8.90;96.59;93999.09;4997267;28;20456;-92
2020/12/11 03:33:24;;;;;;;6.23;5.63;;;;;;;8.92;96.76;93997.16;4997364;28;20460;-92
2020/12/11 03:35:50;;;;;;;5.40;4.93;;;;;;;8.93;96.71;94005.84;4997744;28;20451;-92
2020/12/11 03:38:17;;;;;;;6.47;5.87;;;;;;;8.90;96.80;94004.34;4997542;28;20549;-92
2020/12/11 03:40:43;;;;;;;7.77;6.10;;;;;;;8.91;95.72;94013.84;4997218;28;20488;-92
2020/12/11 03:43:10;;;;;;;8.77;6.10;;;;;;;8.90;95.84;94013.97;4997137;28;20438;-92
2020/12/11 03:45:36;;;;;;;8.90;6.33;;;;;;;8.90;95.42;94019.22;4997368;28;20776;-92
2020/12/11 03:48:04;;;;;;;8.63;6.50;;;;;;;8.87;95.49;94016.88;4997446;28;20459;-92
2020/12/11 03:50:30;;;;;;;12.37;8.50;;;;;;;8.90;95.81;94019.22;4996602;28;20461;-92
2020/12/11 03:52:57;;;;;;;8.63;7.10;;;;;;;8.90;95.35;94025.25;4997155;28;20465;-92
2020/12/11 03:55:23;;;;;;;13.80;8.10;;;;;;;8.84;95.33;94015.38;4997806;28;20840;-92
2020/12/11 03:57:49;;;;;;;9.63;6.50;;;;;;;8.89;94.70;94030.63;5000515;28;20437;-92
2020/12/11 04:00:16;;;;;;;7.77;6.77;;;;;;;8.88;95.13;94024.59;5000135;28;20492;-92
2020/12/11 04:03:09;;;;;;;10.37;7.67;;;;;;;8.89;95.33;94030.63;5003454;28;20448;-93
2020/12/11 04:05:36;;;;;;;9.63;6.70;;;;;;;8.79;95.79;94014.97;5003058;28;20525;-93
2020/12/11 04:08:03;;;;;;;15.20;9.27;;;;;;;8.82;95.25;94029.56;5000673;28;20448;-92
2020/12/11 04:10:29;;;;;;;24.97;14.47;;;;;;;8.79;95.58;94024.63;5000558;28;20543;-92
2020/12/11 04:12:57;;;;;;;10.93;7.50;;;;;;;8.83;95.72;94042.50;5000958;28;20454;-92
2020/12/11 04:15:23;;;;;;;5.97;5.37;;;;;;;8.80;96.17;94049.81;5000659;28;20510;-92
2020/12/11 04:17:50;;;;;;;5.83;5.33;;;;;;;8.78;95.80;94051.72;5000746;28;20444;-92
2020/12/11 04:20:16;;;;;;;5.73;4.67;;;;;;;8.69;96.48;94040.34;5000463;28;20511;-92
2020/12/11 04:22:43;;;;;;;5.63;4.40;;;;;;;8.68;96.21;94047.34;4999504;28;20474;-91
2020/12/11 04:25:10;;;;;;;3.87;3.47;;;;;;;8.66;95.86;94057.09;5000494;28;20457;-91
2020/12/11 04:27:36;;;;;;;3.80;3.40;;;;;;;8.59;95.42;94061.25;4999782;28;20523;-91
2020/12/11 04:30:03;;;;;;;4.80;2.70;;;;;;;8.57;96.20;94063.16;5000281;28;20465;-91
2020/12/11 04:32:29;;;;;;;4.53;4.13;;;;;;;8.55;96.00;94061.66;5000084;28;20453;-91
2020/12/11 04:34:55;;;;;;;5.10;3.90;;;;;;;8.53;95.91;94060.97;4999757;28;20440;-91
2020/12/11 04:37:22;;;;;;;4.83;4.43;;;;;;;8.51;95.64;94053.28;5000105;28;20481;-91
2020/12/11 04:39:49;;;;;;;4.33;3.80;;;;;;;8.53;96.08;94067.03;4999708;28;20484;-91
2020/12/11 04:42:18;;;;;;;4.13;3.73;;;;;;;8.55;95.81;94070.31;4999052;28;20466;-91
2020/12/11 04:44:44;;;;;;;15.53;4.73;;;;;;;8.56;96.00;94069.38;4999143;28;20540;-91
2020/12/11 04:47:11;;;;;;;5.30;3.97;;;;;;;8.55;96.10;94069.50;4999462;28;20452;-92
2020/12/11 04:49:39;;;;;;;8.77;4.33;;;;;;;8.57;95.46;94068.41;4999798;28;20446;-92
2020/12/11 04:52:06;;;;;;;4.00;3.70;;;;;;;8.61;96.17;94063.72;4999747;28;20466;-92
2020/12/11 04:54:37;;;;;;;3.90;3.63;;;;;;;8.60;95.80;94060.28;4999799;28;20480;-92
2020/12/11 04:57:09;;;;;;;6.00;4.30;;;;;;;8.62;95.45;94060.13;4999700;28;20957;-92
2020/12/11 04:59:36;;;;;;;4.80;4.13;;;;;;;8.69;95.29;94067.31;4999655;28;20447;-91
2020/12/11 05:02:11;;;;;;;3.93;3.53;;;;;;;8.71;95.41;94069.78;4999117;28;20453;-91
2020/12/11 05:04:38;;;;;;;7.00;3.87;;;;;;;8.72;95.43;94063.59;4999932;28;20850;-91
2020/12/11 05:07:05;;;;;;;6.67;4.40;;;;;;;8.72;95.45;94062.75;4998326;28;20449;-92
2020/12/11 05:09:31;;;;;;;5.40;4.60;;;;;;;8.68;95.32;94049.13;4999615;28;20417;-92
2020/12/11 05:11:58;;;;;;;5.37;4.67;;;;;;;8.73;94.98;94070.47;4999086;28;20449;-92
2020/12/11 05:14:27;;;;;;;10.30;5.00;;;;;;;8.63;95.04;94057.38;4999712;28;20503;-91
2020/12/11 05:16:57;;;;;;;7.50;4.80;;;;;;;8.61;94.82;94064.53;4999291;28;20473;-92
2020/12/11 05:19:23;;;;;;;4.53;4.20;;;;;;;8.61;94.95;94068.94;4999474;28;20437;-91
2020/12/11 05:21:53;;;;;;;5.63;4.47;;;;;;;8.57;95.26;94067.56;5000177;28;20999;-92
2020/12/11 05:27:03;;;;;;;4.97;4.47;;;;;;;8.57;95.58;94072.81;5001621;28;20530;-92
2020/12/11 05:29:30;;;;;;;5.23;4.20;;;;;;;8.64;95.38;94072.09;5002480;28;20456;-91
2020/12/11 05:31:57;;;;;;;7.50;5.70;;;;;;;8.61;96.05;94069.78;5002583;28;20451;-91
2020/12/11 05:34:23;;;;;;;7.60;6.80;;;;;;;8.62;95.62;94076.66;5004245;28;20436;-91
2020/12/11 05:36:52;;;;;;;12.60;8.63;;;;;;;8.64;95.97;94082.56;5004453;28;20579;-92
2020/12/11 05:39:34;;;;;;;22.77;11.60;;;;;;;8.64;95.91;94090.41;5003286;28;20444;-91
2020/12/11 05:42:02;;;;;;;14.47;9.40;;;;;;;8.63;95.69;94087.94;5000549;28;20446;-91
2020/12/11 05:44:32;;;;;;;15.63;7.87;;;;;;;8.62;95.71;94084.50;5003339;28;21023;-91
2020/12/11 05:46:59;;;;;;;9.50;8.30;;;;;;;8.64;96.15;94089.59;5002218;28;21011;-91
2020/12/11 05:49:28;;;;;;;7.20;6.50;;;;;;;8.64;96.08;94089.59;5002422;28;20436;-91
2020/12/11 05:52:09;;;;;;;10.20;6.80;;;;;;;8.65;95.92;94101.69;5002768;28;20524;-90
2020/12/11 05:54:42;;;;;;;9.47;7.10;;;;;;;8.61;95.54;94102.94;5002663;28;20844;-91
2020/12/11 05:57:09;;;;;;;13.07;9.00;;;;;;;8.57;95.27;94106.78;5002519;28;20453;-90
2020/12/11 05:59:37;;;;;;;9.63;8.10;;;;;;;8.52;95.27;94107.22;5001968;28;20446;-89
2020/12/11 06:02:03;;;;;;;10.93;7.80;;;;;;;8.43;95.35;94108.03;5002125;28;20489;-90
2020/12/11 06:04:30;;;;;;;11.03;6.27;;;;;;;8.44;95.32;94119.31;4990897;28;20458;-90
2020/12/11 06:06:58;;;;;;;7.63;6.93;;;;;;;8.45;95.09;94120.97;4977539;28;20467;-92
2020/12/11 06:09:33;;;;;;;6.90;6.30;;;;;;;8.46;95.49;94128.69;4973447;28;20448;-88
2020/12/11 06:12:11;;;;;;;7.80;6.27;;;;;;;8.51;95.62;94136.94;4977289;28;20951;-85
2020/12/11 06:14:50;;;;;;;9.23;7.10;;;;;;;8.51;95.49;94136.94;4976423;28;20438;-82
2020/12/11 06:17:21;;;;;;;9.00;6.60;;;;;;;8.46;94.57;94141.75;4973188;28;20912;-84
2020/12/11 06:19:48;;;;;;;10.70;8.20;;;;;;;8.44;94.48;94135.84;4972278;28;20911;-84
2020/12/11 06:22:15;;;;;;;13.20;9.33;;;;;;;8.49;93.55;94136.25;4976459;28;20826;-83
2020/12/11 06:24:42;;;;;;;8.67;7.70;;;;;;;8.46;93.65;94141.75;4972063;28;20449;-88
2020/12/11 06:27:08;;;;;;;10.50;8.20;;;;;;;8.45;93.43;94134.88;4974625;28;20554;-91
2020/12/11 06:29:39;;;;;;;12.77;8.43;;;;;;;8.49;93.63;94133.63;4973435;28;20475;-87
2020/12/11 06:32:07;;;;;;;10.33;8.60;;;;;;;8.54;93.39;94136.66;4974316;28;21076;-88
2020/12/11 06:34:34;;;;;;;12.77;8.77;;;;;;;8.55;93.08;94134.88;4974341;28;20480;-88
2020/12/11 06:37:00;;;;;;;11.97;8.37;;;;;;;8.61;92.58;94136.94;4973371;28;20486;-86
2020/12/11 06:39:40;;;;;;;9.47;7.57;;;;;;;8.63;92.74;94135.00;4975900;28;20447;-87
2020/12/11 06:42:10;;;;;;;8.77;7.50;;;;;;;8.76;93.22;94140.81;4973376;28;20570;-87
2020/12/11 06:44:37;;;;;;;13.73;10.30;;;;;;;8.82;92.65;94142.03;4972312;28;20446;-86
2020/12/11 06:47:08;;;;;;;16.93;12.20;;;;;;;8.90;92.25;94145.59;4973461;28;20454;-87
2020/12/11 06:49:35;;;;;;;15.23;9.80;;;;;;;8.97;92.71;94138.88;4972684;28;20448;-87
2020/12/11 06:52:13;;;;;;;12.83;9.70;;;;;;;9.06;91.78;94137.22;4973914;28;20990;-88
2020/12/11 06:54:55;;;;;;;16.70;11.97;;;;;;;9.12;91.42;94149.72;4971693;28;20484;-88
2020/12/11 06:57:32;;;;;;;17.70;13.73;;;;;;;9.16;91.53;94153.72;4974540;28;20503;-86
2020/12/11 06:59:59;;;;;;;32.83;21.53;;;;;;;9.15;91.19;94152.06;4974717;28;20448;-87
2020/12/11 07:02:27;;;;;;;28.73;16.90;;;;;;;9.13;91.08;94148.78;4971767;28;20443;-88
2020/12/11 07:04:53;;;;;;;23.47;16.17;;;;;;;9.10;90.48;94148.22;4972834;28;20447;-88
2020/12/11 07:07:32;;;;;;;15.00;10.60;;;;;;;9.09;89.99;94150.00;4973975;28;20443;-89
2020/12/11 07:10:00;;;;;;;14.90;10.80;;;;;;;9.15;90.05;94153.88;4971111;28;20476;-91
2020/12/11 07:12:27;;;;;;;39.77;23.83;;;;;;;9.17;89.74;94155.38;4970142;28;20570;-86
2020/12/11 07:14:54;;;;;;;19.53;11.10;;;;;;;9.17;88.94;94150.13;4969226;28;22178;-89
2020/12/11 07:17:28;;;;;;;30.53;17.37;;;;;;;9.16;87.97;94158.97;4970364;28;20532;-90
2020/12/11 07:19:55;;;;;;;29.47;14.27;;;;;;;9.14;88.65;94167.91;4971515;28;20509;-84
2020/12/11 07:22:22;;;;;;;17.47;11.77;;;;;;;9.21;89.46;94161.97;4970461;28;20455;-82
2020/12/11 07:24:49;;;;;;;18.33;13.40;;;;;;;9.36;90.96;94164.19;4968380;28;20445;-92
2020/12/11 07:27:16;;;;;;;27.07;16.27;;;;;;;9.37;90.93;94150.94;4972333;28;20442;-88
2020/12/11 07:29:49;;;;;;;27.40;17.40;;;;;;;9.53;91.40;94155.56;4971810;28;20426;-90
2020/12/11 07:32:18;;;;;;;19.20;13.83;;;;;;;9.63;91.10;94165.06;4976767;28;20208;-87
2020/12/11 07:34:49;;;;;;;22.63;16.53;;;;;;;9.74;90.10;94169.31;4972535;28;20462;-88
2020/12/11 07:37:16;;;;;;;22.87;16.03;;;;;;;9.79;90.59;94161.84;4970234;28;20983;-88
2020/12/11 07:39:42;;;;;;;32.67;18.20;;;;;;;9.65;89.50;94156.25;4975483;28;20811;-92
2020/12/11 07:42:09;;;;;;;28.70;17.23;;;;;;;9.76;90.32;94164.75;4975043;28;20547;-92
2020/12/11 07:44:37;;;;;;;23.37;15.30;;;;;;;9.68;91.11;94162.03;4971848;28;20465;-87
2020/12/11 07:47:07;;;;;;;25.87;14.80;;;;;;;9.61;91.66;94153.91;4974072;28;20540;-84
2020/12/11 07:49:38;;;;;;;17.60;12.50;;;;;;;9.39;92.52;94156.03;4978311;28;20454;-90
2020/12/11 07:52:07;;;;;;;24.87;15.40;;;;;;;9.18;93.04;94146.56;4970847;28;20460;-84
2020/12/11 07:54:37;;;;;;;24.83;15.70;;;;;;;9.14;94.41;94155.66;4972712;28;20472;-88
2020/12/11 07:57:11;;;;;;;21.67;14.97;;;;;;;8.98;94.96;94153.63;4973464;28;20483;-88
2020/12/11 07:59:37;;;;;;;22.50;16.77;;;;;;;9.11;95.32;94155.13;4977102;28;20524;-89
2020/12/11 08:02:04;;;;;;;29.93;19.63;;;;;;;9.23;96.37;94160.03;4977526;28;20511;-90
2020/12/11 08:04:30;;;;;;;23.60;16.93;;;;;;;8.85;96.80;94157.47;4977524;28;20865;-91
2020/12/11 08:06:58;;;;;;;27.27;20.37;;;;;;;8.89;97.22;94161.44;4977139;28;20448;-91
2020/12/11 08:09:30;;;;;;;24.20;16.70;;;;;;;8.90;97.38;94165.72;4976490;28;20448;-90
2020/12/11 08:11:56;;;;;;;29.97;19.97;;;;;;;8.96;96.79;94165.16;4976579;28;20441;-87
2020/12/11 08:14:23;;;;;;;28.83;18.80;;;;;;;8.98;97.16;94165.88;4978557;28;20476;-86
2020/12/11 08:16:50;;;;;;;26.83;18.20;;;;;;;9.15;97.07;94170.38;4971126;28;20466;-87
2020/12/11 08:19:17;;;;;;;27.33;17.93;;;;;;;9.20;97.15;94165.56;4972948;28;20471;-87
2020/12/11 08:21:44;;;;;;;28.03;20.17;;;;;;;9.15;95.49;94170.38;4957763;28;20479;-85
2020/12/11 08:24:11;;;;;;;35.57;19.40;;;;;;;8.96;97.71;94170.38;4975848;28;20455;-89
2020/12/11 08:26:39;;;;;;;30.63;20.33;;;;;;;9.00;97.94;94162.16;4943695;28;20440;-86
2020/12/11 08:29:08;;;;;;;25.30;18.37;;;;;;;8.97;97.21;94154.59;4973838;28;20559;-87
2020/12/11 08:31:41;;;;;;;27.90;20.17;;;;;;;9.04;97.36;94147.00;4970314;28;20447;-88
2020/12/11 08:34:10;;;;;;;30.10;17.30;;;;;;;9.08;96.17;94163.25;4975979;28;20489;-88
2020/12/11 08:36:39;;;;;;;31.80;18.60;;;;;;;9.11;94.21;94161.16;4973680;28;20504;-93
2020/12/11 08:39:14;;;;;;;26.90;18.53;;;;;;;9.15;94.28;94166.94;4975765;28;20926;-87
2020/12/11 08:41:53;;;;;;;30.63;19.37;;;;;;;9.22;94.87;94168.84;4974042;28;20476;-86
2020/12/11 08:44:31;;;;;;;32.77;20.43;;;;;;;9.24;94.74;94166.94;4973587;28;20438;-87
2020/12/11 08:47:08;;;;;;;33.30;20.40;;;;;;;9.09;95.22;94165.72;4974452;28;20462;-88
2020/12/11 08:49:48;;;;;;;39.90;26.30;;;;;;;8.96;97.27;94165.16;4975577;28;20821;-85
2020/12/11 08:52:16;;;;;;;49.43;24.10;;;;;;;9.03;96.74;94162.84;4974803;28;20452;-90
2020/12/11 08:54:42;;;;;;;38.37;24.77;;;;;;;9.00;96.80;94170.00;4977420;28;20538;-90
2020/12/11 08:57:10;;;;;;;38.90;24.97;;;;;;;9.11;97.06;94165.56;4975780;28;20497;-86
2020/12/11 08:59:36;;;;;;;31.43;22.03;;;;;;;9.20;95.77;94162.94;4977452;28;20477;-83
2020/12/11 09:02:03;;;;;;;27.70;17.93;;;;;;;9.37;94.95;94161.41;4977131;28;20514;-86
2020/12/11 09:04:30;;;;;;;31.43;21.33;;;;;;;9.39;94.65;94163.88;4976948;28;20523;-86
2020/12/11 09:06:57;;;;;;;30.10;20.07;;;;;;;9.42;92.50;94172.28;4977788;28;20480;-91
2020/12/11 09:09:23;;;;;;;33.87;22.30;;;;;;;9.17;93.50;94165.84;4977934;28;20758;-88
2020/12/11 09:11:50;;;;;;;34.43;22.70;;;;;;;9.11;94.19;94152.50;4978429;28;20437;-90
2020/12/11 09:14:18;;;;;;;40.83;24.60;;;;;;;9.13;94.66;94169.72;4975160;28;20456;-86
2020/12/11 09:16:45;;;;;;;37.03;23.30;;;;;;;9.05;95.65;94148.66;4973947;28;20453;-87
2020/12/11 09:19:14;;;;;;;30.73;21.10;;;;;;;9.04;94.54;94165.31;4974023;28;20445;-87
2020/12/11 09:21:41;;;;;;;39.50;23.47;;;;;;;8.87;95.81;94163.38;4972969;28;20489;-87
2020/12/11 09:24:08;;;;;;;31.00;21.27;;;;;;;8.63;95.92;94159.38;4973006;28;20875;-88
2020/12/11 09:26:34;;;;;;;33.80;24.23;;;;;;;8.82;95.93;94162.97;4973346;28;20454;-86
2020/12/11 09:29:09;;;;;;;31.80;24.07;;;;;;;9.03;97.36;94147.13;4972288;28;21615;-88
2020/12/11 09:31:38;;;;;;;29.70;22.33;;;;;;;9.26;96.45;94149.31;4974806;28;20452;-86
2020/12/11 09:34:05;;;;;;;29.13;20.10;;;;;;;9.32;94.21;94140.91;4972203;28;20487;-86
2020/12/11 09:36:32;;;;;;;26.60;19.27;;;;;;;9.45;93.87;94137.97;4973458;28;20484;-87
2020/12/11 09:38:59;;;;;;;23.97;17.40;;;;;;;9.57;91.80;94139.47;4974453;28;20492;-88
2020/12/11 09:41:29;;;;;;;26.53;18.27;;;;;;;9.65;92.04;94136.13;4959741;28;20485;-87
2020/12/11 09:46:59;;;;;;;23.03;17.00;;;;;;;9.61;88.53;94132.13;4953049;28;20925;-89
2020/12/11 09:49:33;;;;;;;29.90;19.33;;;;;;;9.68;89.07;94148.09;4975240;28;20460;-85
2020/12/11 09:52:18;;;;;;;26.03;18.33;;;;;;;9.63;89.37;94141.50;4958717;28;20445;-88
2020/12/11 09:54:45;;;;;;;27.90;19.03;;;;;;;9.70;89.43;94139.13;4967762;28;20479;-88
2020/12/11 09:57:12;;;;;;;24.10;18.67;;;;;;;9.73;90.45;94125.75;4973564;28;20540;-89
2020/12/11 09:59:47;;;;;;;28.40;19.60;;;;;;;9.87;90.66;94127.91;4955503;28;20441;-89
2020/12/11 10:02:21;;;;;;;30.33;20.60;;;;;;;9.96;90.43;94133.25;4979330;28;20499;-89
2020/12/11 10:04:48;;;;;;;28.90;20.20;;;;;;;10.01;89.89;94133.63;4980779;28;20467;-88
2020/12/11 10:07:14;;;;;;;31.03;20.20;;;;;;;10.04;88.90;94128.09;4974636;28;20459;-89
2020/12/11 10:09:42;;;;;;;32.30;19.93;;;;;;;10.02;89.55;94136.09;4971558;28;20453;-92
2020/12/11 10:12:11;;;;;;;27.00;20.03;;;;;;;9.88;88.84;94121.69;4972504;28;20460;-88
2020/12/11 10:14:39;;;;;;;30.83;19.97;;;;;;;9.89;89.06;94125.97;4974395;28;20510;-92
2020/12/11 10:17:06;;;;;;;28.77;20.00;;;;;;;9.65;89.99;94115.16;4975110;28;20811;-89
2020/12/11 10:19:33;;;;;;;31.30;19.40;;;;;;;9.44;89.76;94119.78;4973034;28;20441;-93
2020/12/11 10:22:00;;;;;;;35.53;19.40;;;;;;;9.54;89.46;94117.94;4973849;28;20319;-82
2020/12/11 10:24:26;;;;;;;26.37;19.10;;;;;;;9.42;90.14;94116.47;4978385;28;20468;-92
2020/12/11 10:26:53;;;;;;;30.63;19.37;;;;;;;9.40;89.80;94115.78;4975401;28;20446;-92
2020/12/11 10:29:20;;;;;;;35.27;22.03;;;;;;;9.20;89.83;94109.75;4979706;28;20455;-90
2020/12/11 10:31:46;;;;;;;31.60;21.80;;;;;;;9.21;90.80;94104.38;4980205;28;20503;-94
2020/12/11 10:34:15;;;;;;;28.07;19.40;;;;;;;9.12;91.48;94107.84;4956509;28;20462;-94
2020/12/11 10:36:43;;;;;;;28.63;18.93;;;;;;;9.22;92.75;94102.59;4972248;28;20445;-83
2020/12/11 10:39:10;;;;;;;33.60;20.27;;;;;;;9.22;91.84;94097.38;4973162;28;20580;-94
2020/12/11 10:41:37;;;;;;;27.73;17.57;;;;;;;9.28;92.74;94100.25;4971518;28;20861;-89
2020/12/11 10:44:05;;;;;;;25.90;19.70;;;;;;;9.06;92.81;94090.09;4952807;28;20443;-86
2020/12/11 10:46:33;;;;;;;31.67;19.43;;;;;;;9.26;93.18;94085.66;4965718;28;20503;-84
2020/12/11 10:48:59;;;;;;;33.07;21.47;;;;;;;9.42;92.64;94082.44;4970965;28;20555;-89
2020/12/11 10:51:27;;;;;;;35.27;21.30;;;;;;;9.57;92.38;94076.59;4973178;28;20545;-89
2020/12/11 10:53:54;;;;;;;29.73;21.30;;;;;;;9.72;91.63;94066.47;4978775;28;20447;-91
2020/12/11 10:56:22;;;;;;;28.57;18.63;;;;;;;9.77;89.60;94066.84;4975243;28;20488;-91
2020/12/11 10:58:49;;;;;;;26.17;19.70;;;;;;;9.63;89.08;94077.81;4982393;28;20458;-87
2020/12/11 11:01:16;;;;;;;30.63;19.60;;;;;;;9.66;88.91;94061.81;4991222;28;20559;-88
2020/12/11 11:03:43;;;;;;;27.13;18.70;;;;;;;9.61;89.64;94057.00;4989229;28;20476;-88
2020/12/11 11:06:18;;;;;;;30.30;21.60;;;;;;;9.73;89.01;94062.03;4971435;28;20440;-88
2020/12/11 11:08:54;;;;;;;29.80;20.77;;;;;;;9.74;90.07;94059.28;4985495;28;20482;-88
2020/12/11 11:11:22;;;;;;;35.43;22.67;;;;;;;9.69;90.41;94055.44;4975725;28;20499;-90
2020/12/11 11:14:07;;;;;;;28.27;20.13;;;;;;;9.70;91.05;94050.06;4976086;28;20448;-91
2020/12/11 11:16:48;;;;;;;26.50;18.50;;;;;;;9.80;90.27;94052.63;4976697;28;20545;-88
2020/12/11 11:19:20;;;;;;;36.47;19.10;;;;;;;9.91;90.29;94050.66;4976051;28;20441;-90
2020/12/11 11:27:32;;;;;;;25.87;18.87;;;;;;;10.08;89.16;94053.44;4975929;28;20597;-88
2020/12/11 11:29:59;;;;;;;29.43;18.80;;;;;;;10.03;89.50;94039.94;4975414;28;20482;-91
2020/12/11 11:32:27;;;;;;;28.80;18.13;;;;;;;10.06;88.85;94043.09;4975583;28;20456;-90
2020/12/11 11:34:55;;;;;;;25.90;19.80;;;;;;;10.14;88.98;94037.13;4959113;28;20475;-89
2020/12/11 11:37:22;;;;;;;25.17;18.70;;;;;;;9.87;89.20;94033.56;4959688;28;20457;-91
2020/12/11 11:39:49;;;;;;;29.33;17.90;;;;;;;9.92;88.79;94020.03;4975053;28;20508;-85
2020/12/11 11:42:16;;;;;;;33.73;20.90;;;;;;;9.85;88.60;94014.56;4975018;28;20985;-88
2020/12/11 11:44:59;;;;;;;35.00;20.50;;;;;;;10.04;89.07;94015.38;4975261;28;20452;-88
2020/12/11 11:47:39;;;;;;;30.43;20.83;;;;;;;10.07;88.65;94026.41;4982493;28;20455;-86